createdAt,value
2022-09-05T00:01:47.316Z,2.92
2022-09-05T00:04:24.176Z,2.70
2022-09-05T00:07:01.230Z,2.72
2022-09-05T00:09:59.562Z,2.88
2022-09-05T00:12:29.205Z,2.88
2022-09-05T00:15:17.796Z,2.97
2022-09-05T00:20:00.086Z,2.65
2022-09-05T00:24:19.772Z,3.38
2022-09-05T00:24:31.281Z,2.50
2022-09-05T00:27:01.078Z,2.40
2022-09-05T00:31:06.643Z,3.05
2022-09-05T00:32:46.809Z,2.83
2022-09-05T00:35:29.224Z,3.00
2022-09-05T00:37:59.518Z,3.05
2022-09-05T00:40:33.376Z,3.00
2022-09-05T00:43:04.743Z,3.10
2022-09-05T00:45:38.907Z,3.05
2022-09-05T00:48:17.297Z,3.42
2022-09-05T00:51:00.719Z,2.92
2022-09-05T00:53:40.078Z,2.80
2022-09-05T00:56:23.373Z,3.13
2022-09-05T00:59:25.680Z,2.20
2022-09-05T01:01:59.685Z,2.97
2022-09-05T01:04:37.970Z,2.50
2022-09-05T01:07:23.746Z,3.08
2022-09-05T01:10:04.234Z,2.10
2022-09-05T01:12:58.838Z,2.60
2022-09-05T01:15:34.207Z,2.70
2022-09-05T01:18:16.554Z,2.72
2022-09-05T01:21:04.983Z,3.40
2022-09-05T01:24:13.423Z,3.15
2022-09-05T01:27:19.628Z,2.47
2022-09-05T01:29:55.199Z,2.35
2022-09-05T01:32:30.826Z,2.58
2022-09-05T01:35:25.676Z,2.83
2022-09-05T01:37:59.683Z,2.70
2022-09-05T01:40:37.457Z,3.47
2022-09-05T01:43:18.730Z,2.65
2022-09-05T01:45:52.121Z,2.60
2022-09-05T01:48:32.733Z,2.50
2022-09-05T01:51:28.930Z,2.72
2022-09-05T01:54:21.396Z,2.47
2022-09-05T01:57:06.070Z,2.70
2022-09-05T01:59:46.075Z,2.40
2022-09-05T02:02:50.774Z,2.80
2022-09-05T02:05:48.128Z,3.20
2022-09-05T02:08:49.230Z,2.97
2022-09-05T02:11:35.794Z,3.33
2022-09-05T02:14:08.781Z,2.65
2022-09-05T02:16:44.605Z,2.40
2022-09-05T02:19:22.053Z,2.70
2022-09-05T02:21:59.445Z,2.83
2022-09-05T02:24:34.068Z,2.63
2022-09-05T02:27:42.903Z,2.83
2022-09-05T02:30:09.049Z,3.42
2022-09-05T02:32:46.964Z,2.80
2022-09-05T02:35:23.758Z,3.67
2022-09-05T02:41:57.210Z,2.30
2022-09-05T02:45:10.556Z,2.85
2022-09-05T02:45:12.206Z,2.78
2022-09-05T02:46:38.833Z,2.63
2022-09-05T02:50:11.253Z,2.90
2022-09-05T02:57:23.785Z,3.20
2022-09-05T02:57:41.754Z,2.70
2022-09-05T02:58:05.936Z,2.88
2022-09-05T03:00:42.597Z,2.20
2022-09-05T03:03:24.405Z,2.97
2022-09-05T03:05:59.819Z,2.92
2022-09-05T03:08:55.439Z,3.35
2022-09-05T03:11:48.324Z,2.47
2022-09-05T03:14:53.581Z,2.72
2022-09-05T03:17:53.333Z,2.85
2022-09-05T03:20:53.032Z,3.47
2022-09-05T03:24:01.133Z,2.72
2022-09-05T03:26:44.652Z,2.67
2022-09-05T03:29:41.306Z,3.20
2022-09-05T03:32:48.861Z,2.95
2022-09-05T03:35:48.930Z,3.40
2022-09-05T03:38:56.905Z,2.50
2022-09-05T03:41:41.969Z,3.08
2022-09-05T03:44:24.626Z,3.08
2022-09-05T03:47:05.510Z,2.50
2022-09-05T03:53:35.568Z,3.13
2022-09-05T03:57:07.148Z,3.70
2022-09-05T03:57:24.721Z,3.17
2022-09-05T03:59:14.065Z,3.53
2022-09-05T04:02:49.165Z,3.10
2022-09-05T04:08:09.417Z,3.10
2022-09-05T04:08:13.869Z,2.85
2022-09-05T04:10:41.409Z,3.25
2022-09-05T04:13:19.193Z,3.28
2022-09-05T04:15:54.637Z,2.92
2022-09-05T04:18:33.856Z,3.47
2022-09-05T04:21:07.929Z,2.85
2022-09-05T04:23:48.275Z,3.40
2022-09-05T04:26:30.148Z,3.40
2022-09-05T04:29:08.992Z,3.40
2022-09-05T04:31:45.588Z,3.05
2022-09-05T04:34:35.500Z,3.95
2022-09-05T04:37:05.160Z,3.55
2022-09-05T04:39:35.858Z,3.35
2022-09-05T04:42:22.510Z,2.67
2022-09-05T04:44:55.729Z,3.63
2022-09-05T04:47:28.972Z,3.30
2022-09-05T04:50:05.024Z,3.05
2022-09-05T04:52:58.252Z,3.47
2022-09-05T04:55:28.833Z,4.57
2022-09-05T04:58:02.039Z,3.15
2022-09-05T05:06:05.503Z,3.25
2022-09-05T05:06:18.515Z,3.47
2022-09-05T05:06:44.083Z,4.03
2022-09-05T05:09:21.773Z,3.10
2022-09-05T05:17:58.767Z,3.38
2022-09-05T05:18:13.213Z,3.80
2022-09-05T05:18:14.226Z,7.80
2022-09-05T05:20:41.547Z,3.63
2022-09-05T05:23:14.374Z,4.18
2022-09-05T05:25:48.038Z,5.88
2022-09-05T05:28:24.962Z,4.90
2022-09-05T05:31:11.322Z,3.75
2022-09-05T05:33:41.767Z,4.75
2022-09-05T05:36:17.323Z,3.70
2022-09-05T05:38:53.455Z,4.30
2022-09-05T05:41:25.789Z,4.55
2022-09-05T05:43:53.673Z,4.55
2022-09-05T05:46:32.128Z,4.20
2022-09-05T05:49:24.312Z,3.78
2022-09-05T05:52:16.859Z,4.47
2022-09-05T05:54:51.273Z,4.45
2022-09-05T05:57:56.905Z,5.32
2022-09-05T06:00:39.802Z,5.22
2022-09-05T06:03:58.973Z,4.25
2022-09-05T06:06:43.036Z,5.57
2022-09-05T06:14:54.742Z,5.45
2022-09-05T06:15:06.830Z,4.03
2022-09-05T06:16:20.162Z,5.07
2022-09-05T06:19:13.117Z,5.13
2022-09-05T06:22:13.214Z,4.25
2022-09-05T06:25:33.974Z,6.07
2022-09-05T06:28:18.516Z,4.40
2022-09-05T06:30:59.274Z,4.68
2022-09-05T06:33:53.716Z,5.10
2022-09-05T06:36:33.246Z,3.70
2022-09-05T06:39:12.176Z,4.68
2022-09-05T06:41:53.253Z,4.60
2022-09-05T06:44:40.301Z,4.97
2022-09-05T06:47:30.229Z,4.70
2022-09-05T06:50:24.164Z,4.43
2022-09-05T06:53:21.069Z,5.38
2022-09-05T06:56:10.662Z,4.82
2022-09-05T06:59:41.934Z,5.88
2022-09-05T07:07:36.115Z,5.15
2022-09-05T07:10:39.374Z,4.45
2022-09-05T07:13:38.855Z,4.28
2022-09-05T07:20:34.186Z,4.30
2022-09-05T07:24:02.269Z,3.42
2022-09-05T07:26:58.588Z,3.92
2022-09-05T07:29:53.476Z,3.50
2022-09-05T07:32:53.628Z,6.05
2022-09-05T07:35:42.700Z,5.57
2022-09-05T07:38:49.038Z,6.30
2022-09-05T07:41:45.577Z,4.25
2022-09-05T07:44:37.175Z,4.95
2022-09-05T07:47:30.066Z,4.90
2022-09-05T07:51:47.163Z,5.78
2022-09-05T07:56:51.883Z,4.97
2022-09-05T07:56:52.411Z,4.32
2022-09-05T07:59:55.931Z,4.57
2022-09-05T08:02:50.259Z,5.53
2022-09-05T08:05:44.222Z,5.03
2022-09-05T08:08:39.577Z,4.25
2022-09-05T08:11:33.209Z,5.75
2022-09-05T08:14:45.392Z,4.80
2022-09-05T08:17:37.202Z,6.18
2022-09-05T08:20:33.958Z,4.95
2022-09-05T08:23:50.665Z,4.45
2022-09-05T08:26:46.767Z,6.18
2022-09-05T08:29:38.723Z,6.00
2022-09-05T08:32:38.856Z,5.65
2022-09-05T08:35:32.071Z,5.28
2022-09-05T08:38:20.490Z,4.45
2022-09-05T08:41:16.236Z,5.53
2022-09-05T08:46:43.801Z,4.93
2022-09-05T08:47:44.982Z,5.47
2022-09-05T08:50:49.559Z,4.20
2022-09-05T08:53:54.895Z,5.72
2022-09-05T08:56:53.855Z,5.45
2022-09-05T09:00:11.994Z,6.25
2022-09-05T09:03:04.550Z,5.03
2022-09-05T09:06:22.485Z,5.13
2022-09-05T09:09:20.601Z,4.82
2022-09-05T09:12:19.475Z,4.93
2022-09-05T09:15:20.546Z,4.18
2022-09-05T09:18:16.766Z,4.57
2022-09-05T09:21:24.118Z,5.40
2022-09-05T09:24:24.010Z,6.20
2022-09-05T09:27:38.430Z,6.15
2022-09-05T09:30:31.886Z,6.68
2022-09-05T09:33:30.190Z,5.30
2022-09-05T09:36:37.520Z,5.80
2022-09-05T09:39:39.699Z,5.65
2022-09-05T09:42:38.720Z,6.43
2022-09-05T09:45:36.082Z,6.22
2022-09-05T09:48:52.270Z,5.47
2022-09-05T09:52:00.313Z,6.65
2022-09-05T09:55:39.008Z,5.28
2022-09-05T09:58:49.391Z,6.40
2022-09-05T10:01:52.407Z,6.30
2022-09-05T10:10:34.326Z,6.43
2022-09-05T10:10:53.339Z,7.05
2022-09-05T10:12:20.911Z,5.90
2022-09-05T10:15:31.161Z,5.13
2022-09-05T10:18:35.326Z,5.80
2022-09-05T10:21:39.705Z,5.53
2022-09-05T10:24:43.835Z,5.53
2022-09-05T10:27:44.658Z,5.90
2022-09-05T10:32:23.267Z,5.45
2022-09-05T10:35:08.367Z,5.32
2022-09-05T10:37:14.136Z,3.42
2022-09-05T10:40:07.376Z,5.03
2022-09-05T10:43:02.340Z,5.32
2022-09-05T10:46:02.449Z,5.75
2022-09-05T10:48:54.919Z,4.88
2022-09-05T10:51:51.748Z,6.60
2022-09-05T10:55:14.832Z,6.53
2022-09-05T10:58:23.497Z,5.70
2022-09-05T11:02:22.466Z,5.57
2022-09-05T11:04:52.512Z,5.18
2022-09-05T11:07:49.634Z,5.65
2022-09-05T11:10:46.651Z,4.97
2022-09-05T11:13:45.137Z,5.95
2022-09-05T11:16:39.995Z,4.72
2022-09-05T11:19:36.665Z,4.53
2022-09-05T11:22:27.742Z,5.10
2022-09-05T11:25:36.166Z,5.63
2022-09-05T11:28:57.468Z,5.47
2022-09-05T11:34:28.442Z,5.57
2022-09-05T11:39:00.736Z,4.45
2022-09-05T11:40:08.556Z,5.50
2022-09-05T11:42:32.881Z,5.55
2022-09-05T11:45:56.740Z,4.65
2022-09-05T11:49:14.512Z,4.82
2022-09-05T11:52:29.661Z,5.00
2022-09-05T11:55:21.004Z,5.32
2022-09-05T11:58:29.696Z,6.45
2022-09-05T12:01:41.992Z,5.22
2022-09-05T12:04:18.782Z,5.30
2022-09-05T12:07:26.811Z,5.78
2022-09-05T12:10:45.792Z,5.40
2022-09-05T12:13:17.107Z,5.25
2022-09-05T12:16:07.637Z,4.80
2022-09-05T12:18:42.680Z,5.13
2022-09-05T12:21:27.409Z,4.15
2022-09-05T12:27:42.196Z,3.83
2022-09-05T12:29:52.217Z,6.05
2022-09-05T12:33:32.633Z,5.82
2022-09-05T12:36:07.914Z,5.03
2022-09-05T12:40:04.908Z,5.32
2022-09-05T12:41:39.695Z,5.82
2022-09-05T12:42:07.457Z,5.32
2022-09-05T12:44:40.933Z,4.80
2022-09-05T12:47:16.925Z,5.05
2022-09-05T12:50:03.322Z,5.10
2022-09-05T12:52:44.666Z,5.57
2022-09-05T12:55:22.358Z,5.03
2022-09-05T13:02:23.682Z,5.13
2022-09-05T13:03:13.936Z,4.75
2022-09-05T13:03:53.466Z,5.60
2022-09-05T13:06:30.113Z,4.45
2022-09-05T13:09:03.981Z,4.60
2022-09-05T13:14:53.865Z,4.57
2022-09-05T13:15:07.546Z,5.45
2022-09-05T13:17:44.155Z,4.45
2022-09-05T13:20:18.296Z,4.63
2022-09-05T13:22:50.468Z,4.93
2022-09-05T13:25:26.887Z,4.55
2022-09-05T13:28:01.455Z,4.15
2022-09-05T13:35:06.957Z,4.40
2022-09-05T13:37:58.986Z,3.92
2022-09-05T13:38:16.018Z,4.95
2022-09-05T13:39:06.534Z,4.82
2022-09-05T13:41:37.740Z,4.65
2022-09-05T13:44:26.415Z,5.35
2022-09-05T13:47:00.732Z,4.47
2022-09-05T13:49:33.124Z,3.92
2022-09-05T13:52:26.199Z,4.78
2022-09-05T13:55:05.136Z,3.95
2022-09-05T13:57:38.850Z,4.15
2022-09-05T14:00:51.290Z,3.97
2022-09-05T14:03:55.769Z,3.45
2022-09-05T14:10:22.241Z,3.20
2022-09-05T14:13:01.245Z,4.05
2022-09-05T14:15:40.198Z,3.50
2022-09-05T14:18:21.159Z,3.75
2022-09-05T14:21:12.717Z,4.28
2022-09-05T14:23:53.825Z,4.20
2022-09-05T14:26:27.879Z,3.58
2022-09-05T14:29:03.303Z,3.50
2022-09-05T14:37:39.711Z,3.58
2022-09-05T14:37:54.762Z,4.00
2022-09-05T14:38:05.728Z,4.53
2022-09-05T14:41:23.258Z,3.83
2022-09-05T14:44:17.728Z,4.07
2022-09-05T14:47:02.890Z,4.35
2022-09-05T14:49:51.088Z,4.07
2022-09-05T14:52:24.317Z,4.20
2022-09-05T15:02:47.706Z,4.50
2022-09-05T15:02:48.691Z,4.38
2022-09-05T15:06:33.126Z,4.07
2022-09-05T15:12:18.559Z,4.97
2022-09-05T15:12:23.217Z,4.20
2022-09-05T15:14:45.083Z,4.70
2022-09-05T15:17:22.445Z,4.38
2022-09-05T15:20:06.574Z,4.80
2022-09-05T15:22:37.755Z,4.13
2022-09-05T15:25:23.946Z,3.92
2022-09-05T15:27:52.450Z,4.07
2022-09-05T15:30:25.659Z,4.97
2022-09-05T15:33:25.650Z,4.70
2022-09-05T15:35:56.762Z,4.10
2022-09-05T15:38:28.609Z,3.92
2022-09-05T15:41:17.206Z,4.55
2022-09-05T15:43:52.293Z,4.95
2022-09-05T15:46:29.578Z,3.85
2022-09-05T15:49:04.120Z,5.18
2022-09-05T15:51:43.167Z,5.35
2022-09-05T15:54:15.553Z,4.63
2022-09-05T15:57:03.138Z,5.38
2022-09-05T15:59:37.616Z,6.18
2022-09-05T16:02:10.870Z,6.57
2022-09-05T16:08:35.444Z,8.00
2022-09-05T16:10:34.563Z,4.10
2022-09-05T16:10:42.219Z,3.83
2022-09-05T16:13:13.638Z,4.45
2022-09-05T16:19:25.019Z,4.80
2022-09-05T16:23:17.781Z,4.63
2022-09-05T16:23:29.335Z,4.60
2022-09-05T16:24:24.946Z,4.40
2022-09-05T16:27:08.379Z,5.07
2022-09-05T16:29:40.588Z,4.80
2022-09-05T16:32:17.990Z,4.32
2022-09-05T16:34:54.616Z,5.03
2022-09-05T16:37:30.753Z,4.35
2022-09-05T16:40:12.970Z,4.32
2022-09-05T16:42:46.774Z,4.22
2022-09-05T16:45:34.503Z,4.45
2022-09-05T16:48:12.127Z,4.70
2022-09-05T16:50:50.221Z,4.53
2022-09-05T16:53:32.226Z,5.10
2022-09-05T16:56:05.250Z,4.95
2022-09-05T16:58:38.694Z,4.18
2022-09-05T17:01:20.041Z,4.05
2022-09-05T17:03:55.094Z,4.47
2022-09-05T17:06:30.389Z,5.43
2022-09-05T17:09:13.051Z,4.38
2022-09-05T17:11:49.271Z,4.43
2022-09-05T17:14:34.986Z,4.25
2022-09-05T17:17:36.620Z,4.85
2022-09-05T17:20:07.352Z,3.92
2022-09-05T17:23:42.889Z,4.32
2022-09-05T17:29:31.063Z,3.83
2022-09-05T17:29:43.224Z,4.68
2022-09-05T17:31:57.234Z,4.22
2022-09-05T17:34:50.189Z,4.60
2022-09-05T17:37:30.220Z,4.55
2022-09-05T17:40:10.440Z,4.32
2022-09-05T17:42:52.429Z,4.35
2022-09-05T17:45:26.204Z,3.92
2022-09-05T17:47:58.042Z,4.70
2022-09-05T17:50:51.025Z,4.28
2022-09-05T17:53:25.103Z,4.28
2022-09-05T17:56:13.473Z,4.30
2022-09-05T17:59:03.065Z,4.38
2022-09-05T18:01:34.775Z,4.25
2022-09-05T18:04:15.837Z,4.22
2022-09-05T18:06:59.746Z,4.70
2022-09-05T18:09:59.083Z,4.72
2022-09-05T18:13:31.852Z,4.53
2022-09-05T18:16:11.485Z,4.30
2022-09-05T18:18:47.809Z,4.15
2022-09-05T18:21:48.413Z,4.35
2022-09-05T18:24:32.710Z,3.90
2022-09-05T18:30:05.944Z,5.20
2022-09-05T18:32:45.297Z,4.05
2022-09-05T18:35:37.846Z,4.40
2022-09-05T18:38:50.501Z,4.85
2022-09-05T18:41:20.840Z,18.63
2022-09-05T18:44:14.057Z,7.07
2022-09-05T18:46:47.665Z,5.20
2022-09-05T18:50:23.332Z,4.30
2022-09-05T18:52:23.821Z,4.63
2022-09-05T18:56:10.184Z,5.35
2022-09-05T18:57:47.949Z,3.90
2022-09-05T19:00:24.607Z,5.25
2022-09-05T19:03:06.368Z,4.55
2022-09-05T19:05:47.159Z,5.05
2022-09-05T19:08:29.039Z,4.57
2022-09-05T19:11:25.375Z,5.70
2022-09-05T19:13:59.910Z,4.93
2022-09-05T19:16:47.866Z,5.20
2022-09-05T19:19:19.346Z,5.57
2022-09-05T19:21:56.263Z,5.80
2022-09-05T19:24:46.229Z,4.63
2022-09-05T19:28:55.454Z,4.78
2022-09-05T19:36:52.037Z,5.07
2022-09-05T19:36:53.600Z,4.95
2022-09-05T19:36:54.138Z,5.07
2022-09-05T19:38:42.081Z,4.85
2022-09-05T19:47:29.277Z,5.00
2022-09-05T19:47:55.588Z,5.55
2022-09-05T19:47:57.785Z,5.72
2022-09-05T19:50:09.703Z,5.75
2022-09-05T19:52:39.962Z,4.80
2022-09-05T19:55:21.858Z,5.97
2022-09-05T19:58:19.477Z,6.03
2022-09-05T20:00:46.016Z,5.70
2022-09-05T20:03:38.572Z,5.47
2022-09-05T20:06:28.924Z,5.13
2022-09-05T20:09:09.512Z,4.55
2022-09-05T20:11:46.337Z,5.68
2022-09-05T20:14:29.146Z,6.03
2022-09-05T20:16:58.870Z,5.50
2022-09-05T20:19:30.689Z,6.20
2022-09-05T20:22:17.401Z,5.10
2022-09-05T20:24:53.843Z,5.28
2022-09-05T20:27:27.034Z,6.18
2022-09-05T20:29:59.755Z,4.97
2022-09-05T20:32:39.852Z,5.63
2022-09-05T20:42:55.463Z,5.22
2022-09-05T20:43:19.747Z,5.32
2022-09-05T20:43:31.365Z,5.60
2022-09-05T20:44:00.083Z,4.75
2022-09-05T20:50:44.341Z,4.88
2022-09-05T20:54:13.408Z,6.28
2022-09-05T20:54:27.791Z,5.70
2022-09-05T20:55:40.230Z,5.35
2022-09-05T20:58:11.815Z,6.10
2022-09-05T21:01:15.487Z,5.15
2022-09-05T21:03:36.606Z,5.53
2022-09-05T21:06:12.656Z,5.15
2022-09-05T21:08:40.785Z,5.85
2022-09-05T21:11:08.944Z,5.85
2022-09-05T21:13:52.002Z,5.93
2022-09-05T21:16:22.722Z,6.05
2022-09-05T21:18:52.593Z,4.57
2022-09-05T21:21:29.646Z,4.80
2022-09-05T21:24:17.904Z,5.03
2022-09-05T21:26:50.789Z,5.65
2022-09-05T21:29:26.486Z,4.82
2022-09-05T21:32:01.830Z,4.78
2022-09-05T21:34:33.430Z,5.75
2022-09-05T21:37:07.064Z,5.00
2022-09-05T21:39:51.991Z,5.95
2022-09-05T21:44:49.140Z,5.10
2022-09-05T21:47:50.094Z,6.38
2022-09-05T21:48:07.024Z,5.00
2022-09-05T21:50:40.663Z,5.22
2022-09-05T21:55:51.764Z,5.22
2022-09-05T21:59:18.470Z,6.47
2022-09-05T21:59:25.801Z,5.75
2022-09-05T22:01:51.189Z,5.05
2022-09-05T22:04:21.770Z,5.32
2022-09-05T22:06:53.096Z,5.07
2022-09-05T22:09:22.470Z,6.10
2022-09-05T22:11:51.242Z,5.25
2022-09-05T22:14:19.498Z,6.00
2022-09-05T22:16:50.071Z,6.10
2022-09-05T22:19:22.390Z,5.97
2022-09-05T22:21:54.485Z,5.95
2022-09-05T22:24:24.524Z,6.43
2022-09-05T22:27:11.065Z,6.22
2022-09-05T22:29:40.569Z,6.22
2022-09-05T22:32:08.690Z,6.05
2022-09-05T22:34:36.299Z,6.22
2022-09-05T22:37:05.224Z,6.68
2022-09-05T22:39:36.940Z,6.88
2022-09-05T22:42:10.553Z,7.28
2022-09-05T22:44:41.825Z,7.47
2022-09-05T22:47:10.647Z,6.40
2022-09-05T22:49:38.650Z,6.90
2022-09-05T22:52:09.729Z,7.25
2022-09-05T22:54:37.487Z,7.13
2022-09-05T22:57:05.916Z,7.30
2022-09-05T22:59:33.577Z,6.60
2022-09-05T23:02:01.248Z,7.35
2022-09-05T23:04:29.071Z,6.60
2022-09-05T23:06:56.794Z,7.15
2022-09-05T23:09:25.800Z,6.43
2022-09-05T23:11:53.424Z,7.03
2022-09-05T23:14:21.062Z,7.72
2022-09-05T23:16:48.705Z,8.25
2022-09-05T23:19:16.355Z,6.43
2022-09-05T23:21:43.979Z,8.07
2022-09-05T23:24:11.607Z,7.93
2022-09-05T23:26:40.576Z,7.78
2022-09-05T23:29:08.150Z,8.30
2022-09-05T23:31:35.639Z,8.02
2022-09-05T23:34:03.253Z,8.13
2022-09-05T23:36:31.335Z,7.78
2022-09-05T23:38:59.304Z,6.88
2022-09-05T23:41:26.906Z,7.38
2022-09-05T23:43:55.863Z,7.80
2022-09-05T23:46:23.493Z,7.75
2022-09-05T23:48:51.253Z,8.02
2022-09-05T23:51:18.866Z,7.53
2022-09-05T23:53:46.718Z,7.88
2022-09-05T23:56:14.347Z,7.53
2022-09-05T23:58:41.976Z,8.90
